createdAt,value
2022-10-13T00:00:04.515Z,70.14
2022-10-13T00:01:04.675Z,70.14
2022-10-13T00:02:04.554Z,70.23
2022-10-13T00:03:04.576Z,69.95
2022-10-13T00:04:04.590Z,70.04
2022-10-13T00:05:04.348Z,69.76
2022-10-13T00:06:04.634Z,69.76
2022-10-13T00:07:04.645Z,69.76
2022-10-13T00:08:04.672Z,69.76
2022-10-13T00:09:04.424Z,69.76
2022-10-13T00:10:04.707Z,70.14
2022-10-13T00:11:04.721Z,69.85
2022-10-13T00:12:04.737Z,70.14
2022-10-13T00:13:04.746Z,70.23
2022-10-13T00:14:04.764Z,70.23
2022-10-13T00:15:04.818Z,70.14
2022-10-13T00:16:04.811Z,70.14
2022-10-13T00:17:04.848Z,70.14
2022-10-13T00:18:04.591Z,70.29
2022-10-13T00:19:04.879Z,70.14
2022-10-13T00:20:04.876Z,70.04
2022-10-13T00:21:05.290Z,69.91
2022-10-13T00:22:04.921Z,70.1
2022-10-13T00:23:04.674Z,70.01
2022-10-13T00:24:04.945Z,69.85
2022-10-13T00:25:04.977Z,69.95
2022-10-13T00:26:04.728Z,69.85
2022-10-13T00:27:04.746Z,70.01
2022-10-13T00:28:05.027Z,69.72
2022-10-13T00:29:05.205Z,69.72
2022-10-13T00:30:04.806Z,70.01
2022-10-13T00:31:04.854Z,70.1
2022-10-13T00:32:04.834Z,70.1
2022-10-13T00:33:05.282Z,69.82
2022-10-13T00:34:04.891Z,69.72
2022-10-13T00:35:05.099Z,70.2
2022-10-13T00:36:05.121Z,69.62
2022-10-13T00:37:05.282Z,69.72
2022-10-13T00:38:05.304Z,70.1
2022-10-13T00:39:05.068Z,69.72
2022-10-13T00:40:05.333Z,70.1
2022-10-13T00:41:05.107Z,69.72
2022-10-13T00:42:05.270Z,69.72
2022-10-13T00:43:05.083Z,70.2
2022-10-13T00:44:05.054Z,69.62
2022-10-13T00:45:05.079Z,70.1
2022-10-13T00:46:05.346Z,69.72
2022-10-13T00:47:05.392Z,69.72
2022-10-13T00:48:05.374Z,69.62
2022-10-13T00:49:05.431Z,69.62
2022-10-13T00:50:05.419Z,70.1
2022-10-13T00:51:05.442Z,70.1
2022-10-13T00:52:05.451Z,69.91
2022-10-13T00:53:05.212Z,69.82
2022-10-13T00:54:05.484Z,69.82
2022-10-13T00:55:05.507Z,69.72
2022-10-13T00:56:05.517Z,70.01
2022-10-13T00:57:05.543Z,70.2
2022-10-13T00:58:07.952Z,69.72
2022-10-13T00:59:05.575Z,70.1
2022-10-13T01:00:05.343Z,70.29
2022-10-13T01:01:05.683Z,70.2
2022-10-13T01:02:05.375Z,70.2
2022-10-13T01:03:05.412Z,70.2
2022-10-13T01:04:05.415Z,70.29
2022-10-13T01:05:05.697Z,70.01
2022-10-13T01:06:05.697Z,70.29
2022-10-13T01:07:05.720Z,69.72
2022-10-13T01:08:05.473Z,69.91
2022-10-13T01:09:05.758Z,69.82
2022-10-13T01:10:05.507Z,70.2
2022-10-13T01:11:05.528Z,69.53
2022-10-13T01:12:05.545Z,70.01
2022-10-13T01:13:05.568Z,69.91
2022-10-13T01:14:05.840Z,69.82
2022-10-13T01:15:05.864Z,70.01
2022-10-13T01:16:05.621Z,69.82
2022-10-13T01:17:05.632Z,69.62
2022-10-13T01:18:05.917Z,70.01
2022-10-13T01:19:05.954Z,69.91
2022-10-13T01:20:05.942Z,70.1
2022-10-13T01:21:06.188Z,70.01
2022-10-13T01:22:05.721Z,70.01
2022-10-13T01:23:06.000Z,69.91
2022-10-13T01:24:06.022Z,70.01
2022-10-13T01:25:06.033Z,69.91
2022-10-13T01:26:06.050Z,69.72
2022-10-13T01:27:06.081Z,70.1
2022-10-13T01:28:06.095Z,69.91
2022-10-13T01:29:05.845Z,70.1
2022-10-13T01:30:05.873Z,69.91
2022-10-13T01:31:06.159Z,69.91
2022-10-13T01:32:06.162Z,70.01
2022-10-13T01:33:06.168Z,69.72
2022-10-13T01:34:06.202Z,69.91
2022-10-13T01:35:05.977Z,70.01
2022-10-13T01:36:06.230Z,70.1
2022-10-13T01:37:06.270Z,69.91
2022-10-13T01:38:06.011Z,70.01
2022-10-13T01:39:06.285Z,69.72
2022-10-13T01:40:06.303Z,70.01
2022-10-13T01:41:06.313Z,69.91
2022-10-13T01:42:06.341Z,70.01
2022-10-13T01:43:06.350Z,69.91
2022-10-13T01:44:06.121Z,69.62
2022-10-13T01:45:06.399Z,70.01
2022-10-13T01:46:06.407Z,70.1
2022-10-13T01:47:06.173Z,70.1
2022-10-13T01:48:06.447Z,70.1
2022-10-13T01:49:06.464Z,70.01
2022-10-13T01:50:06.483Z,69.82
2022-10-13T01:51:06.533Z,69.72
2022-10-13T01:52:06.260Z,69.82
2022-10-13T01:53:06.562Z,70.1
2022-10-13T01:54:06.559Z,70.01
2022-10-13T01:55:06.310Z,69.72
2022-10-13T01:56:06.592Z,70.1
2022-10-13T01:57:06.350Z,70.01
2022-10-13T01:58:06.633Z,69.62
2022-10-13T01:59:06.396Z,69.72
2022-10-13T02:00:06.660Z,69.72
2022-10-13T02:01:06.852Z,69.82
2022-10-13T02:02:06.706Z,69.72
2022-10-13T02:03:06.711Z,69.72
2022-10-13T02:04:06.481Z,69.82
2022-10-13T02:05:06.493Z,70.01
2022-10-13T02:06:06.773Z,69.72
2022-10-13T02:07:06.554Z,69.72
2022-10-13T02:08:06.805Z,69.91
2022-10-13T02:09:06.954Z,69.62
2022-10-13T02:10:06.840Z,69.72
2022-10-13T02:11:06.606Z,69.72
2022-10-13T02:12:06.873Z,70.58
2022-10-13T02:13:06.894Z,70.2
2022-10-13T02:14:06.901Z,70.2
2022-10-13T02:15:06.932Z,70.1
2022-10-13T02:16:06.952Z,69.72
2022-10-13T02:17:06.966Z,69.91
2022-10-13T02:18:06.978Z,70.1
2022-10-13T02:19:06.744Z,70.2
2022-10-13T02:20:06.759Z,70.29
2022-10-13T02:21:06.826Z,70.1
2022-10-13T02:22:07.051Z,69.62
2022-10-13T02:23:07.092Z,70.1
2022-10-13T02:24:06.822Z,70.01
2022-10-13T02:25:07.155Z,69.72
2022-10-13T02:26:07.128Z,70.1
2022-10-13T02:27:06.888Z,70.58
2022-10-13T02:28:06.894Z,70.58
2022-10-13T02:29:07.179Z,70.58
2022-10-13T02:30:07.193Z,70.29
2022-10-13T02:31:07.211Z,70.58
2022-10-13T02:32:06.969Z,70.58
2022-10-13T02:33:07.252Z,70.58
2022-10-13T02:34:07.269Z,70.58
2022-10-13T02:35:07.282Z,70.48
2022-10-13T02:36:07.300Z,70.48
2022-10-13T02:37:07.321Z,70.48
2022-10-13T02:38:07.331Z,70.58
2022-10-13T02:39:07.123Z,70.39
2022-10-13T02:40:07.111Z,70.29
2022-10-13T02:41:07.415Z,70.29
2022-10-13T02:42:07.407Z,70.29
2022-10-13T02:43:07.430Z,70.48
2022-10-13T02:44:07.185Z,70.48
2022-10-13T02:45:07.467Z,70.39
2022-10-13T02:46:07.487Z,70.58
2022-10-13T02:47:07.509Z,70.48
2022-10-13T02:48:07.516Z,70.48
2022-10-13T02:49:07.534Z,70.39
2022-10-13T02:50:07.542Z,70.39
2022-10-13T02:51:07.569Z,70.2
2022-10-13T02:52:07.583Z,70.1
2022-10-13T02:53:07.604Z,70.67
2022-10-13T02:54:07.620Z,70.29
2022-10-13T02:55:07.746Z,70.1
2022-10-13T02:56:07.654Z,70.01
2022-10-13T02:57:07.699Z,70.2
2022-10-13T02:58:07.691Z,70.1
2022-10-13T02:59:07.451Z,70.2
2022-10-13T03:00:07.466Z,70.39
2022-10-13T03:01:07.873Z,70.39
2022-10-13T03:02:07.765Z,70.39
2022-10-13T03:03:07.777Z,70.39
2022-10-13T03:04:07.542Z,70.29
2022-10-13T03:05:07.813Z,70.48
2022-10-13T03:06:07.840Z,70.39
2022-10-13T03:07:07.853Z,70.58
2022-10-13T03:08:07.873Z,70.48
2022-10-13T03:09:07.629Z,70.39
2022-10-13T03:10:07.915Z,70.58
2022-10-13T03:11:07.684Z,70.39
2022-10-13T03:12:07.682Z,70.77
2022-10-13T03:13:07.974Z,70.58
2022-10-13T03:14:07.973Z,70.67
2022-10-13T03:15:08.008Z,70.58
2022-10-13T03:16:07.753Z,70.58
2022-10-13T03:17:13.351Z,70.39
2022-10-13T03:18:07.789Z,70.67
2022-10-13T03:19:08.060Z,70.58
2022-10-13T03:20:07.828Z,70.39
2022-10-13T03:21:08.202Z,70.58
2022-10-13T03:22:08.122Z,70.29
2022-10-13T03:23:07.874Z,70.48
2022-10-13T03:24:08.157Z,70.1
2022-10-13T03:25:08.168Z,70.96
2022-10-13T03:26:07.942Z,70.58
2022-10-13T03:27:07.973Z,70.48
2022-10-13T03:28:07.970Z,70.58
2022-10-13T03:29:08.257Z,70.58
2022-10-13T03:30:08.269Z,70.67
2022-10-13T03:31:08.029Z,70.67
2022-10-13T03:32:08.041Z,70.67
2022-10-13T03:33:08.314Z,70.67
2022-10-13T03:34:08.336Z,70.77
2022-10-13T03:35:08.346Z,70.39
2022-10-13T03:36:08.368Z,70.77
2022-10-13T03:37:08.381Z,70.77
2022-10-13T03:38:08.401Z,70.67
2022-10-13T03:39:08.413Z,70.67
2022-10-13T03:40:08.446Z,70.58
2022-10-13T03:41:08.195Z,70.48
2022-10-13T03:42:08.211Z,70.67
2022-10-13T03:43:08.572Z,70.58
2022-10-13T03:44:08.508Z,70.77
2022-10-13T03:45:08.545Z,70.96
2022-10-13T03:46:08.545Z,70.58
2022-10-13T03:47:08.551Z,70.58
2022-10-13T03:48:08.581Z,70.96
2022-10-13T03:49:08.343Z,70.87
2022-10-13T03:50:08.609Z,70.87
2022-10-13T03:51:08.635Z,70.87
2022-10-13T03:52:08.652Z,70.87
2022-10-13T03:53:08.665Z,70.77
2022-10-13T03:54:08.678Z,70.58
2022-10-13T03:55:08.699Z,70.77
2022-10-13T03:56:08.460Z,70.77
2022-10-13T03:57:08.481Z,70.67
2022-10-13T03:58:08.496Z,70.58
2022-10-13T03:59:08.798Z,70.67
2022-10-13T04:00:08.789Z,70.77
2022-10-13T04:01:08.835Z,70.58
2022-10-13T04:02:08.963Z,70.58
2022-10-13T04:03:08.842Z,70.58
2022-10-13T04:04:08.858Z,71.06
2022-10-13T04:05:08.618Z,70.77
2022-10-13T04:06:08.635Z,70.58
2022-10-13T04:07:08.912Z,70.67
2022-10-13T04:08:08.923Z,70.58
2022-10-13T04:09:08.955Z,70.58
2022-10-13T04:10:13.672Z,70.67
2022-10-13T04:11:08.983Z,70.87
2022-10-13T04:12:08.995Z,70.58
2022-10-13T04:13:09.020Z,70.87
2022-10-13T04:14:09.032Z,71.15
2022-10-13T04:15:09.080Z,70.87
2022-10-13T04:16:08.812Z,70.77
2022-10-13T04:17:09.115Z,70.45
2022-10-13T04:18:09.103Z,70.87
2022-10-13T04:19:09.125Z,70.87
2022-10-13T04:20:09.139Z,70.87
2022-10-13T04:21:09.258Z,70.96
2022-10-13T04:22:09.172Z,70.96
2022-10-13T04:23:08.937Z,70.96
2022-10-13T04:24:09.208Z,71.02
2022-10-13T04:25:09.231Z,70.87
2022-10-13T04:26:09.238Z,70.92
2022-10-13T04:27:09.011Z,70.87
2022-10-13T04:28:09.282Z,70.58
2022-10-13T04:29:09.049Z,70.58
2022-10-13T04:30:11.496Z,70.96
2022-10-13T04:31:09.357Z,70.67
2022-10-13T04:32:09.291Z,70.58
2022-10-13T04:33:09.393Z,70.58
2022-10-13T04:34:09.123Z,70.77
2022-10-13T04:35:09.405Z,70.67
2022-10-13T04:36:09.162Z,70.58
2022-10-13T04:37:09.434Z,70.67
2022-10-13T04:38:09.458Z,70.67
2022-10-13T04:39:09.478Z,70.77
2022-10-13T04:40:09.230Z,70.67
2022-10-13T04:41:09.508Z,70.58
2022-10-13T04:42:09.534Z,70.64
2022-10-13T04:43:09.542Z,70.77
2022-10-13T04:44:09.563Z,70.67
2022-10-13T04:45:09.581Z,70.54
2022-10-13T04:46:09.340Z,70.54
2022-10-13T04:47:09.643Z,70.67
2022-10-13T04:48:09.629Z,71.25
2022-10-13T04:49:09.670Z,70.87
2022-10-13T04:50:09.667Z,71.12
2022-10-13T04:51:09.422Z,71.02
2022-10-13T04:52:09.444Z,71.15
2022-10-13T04:53:09.715Z,71.02
2022-10-13T04:54:09.739Z,70.83
2022-10-13T04:55:09.760Z,71.02
2022-10-13T04:56:09.513Z,70.92
2022-10-13T04:57:09.789Z,71.02
2022-10-13T04:58:09.808Z,71.12
2022-10-13T04:59:09.822Z,71.06
2022-10-13T05:00:09.841Z,71.02
2022-10-13T05:01:09.698Z,71.02
2022-10-13T05:02:09.618Z,71.02
2022-10-13T05:03:09.910Z,71.02
2022-10-13T05:04:09.649Z,71.12
2022-10-13T05:05:09.955Z,71.31
2022-10-13T05:06:09.946Z,71.34
2022-10-13T05:07:25.430Z,71.31
2022-10-13T05:08:09.978Z,71.5
2022-10-13T05:09:09.993Z,71.31
2022-10-13T05:10:09.755Z,71.5
2022-10-13T05:11:09.771Z,71.02
2022-10-13T05:12:10.050Z,71.21
2022-10-13T05:13:09.808Z,71.21
2022-10-13T05:14:09.827Z,71.41
2022-10-13T05:15:10.099Z,71.41
2022-10-13T05:16:10.123Z,71.12
2022-10-13T05:17:09.877Z,71.21
2022-10-13T05:18:09.898Z,71.15
2022-10-13T05:19:10.195Z,71.21
2022-10-13T05:20:10.190Z,71.02
2022-10-13T05:21:10.429Z,71.12
2022-10-13T05:22:09.967Z,71.12
2022-10-13T05:23:10.243Z,71.02
2022-10-13T05:24:10.262Z,71.21
2022-10-13T05:25:10.019Z,71.31
2022-10-13T05:26:10.292Z,71.31
2022-10-13T05:27:10.313Z,71.12
2022-10-13T05:28:10.333Z,71.41
2022-10-13T05:29:10.089Z,71.34
2022-10-13T05:30:10.105Z,71.31
2022-10-13T05:31:10.124Z,70.92
2022-10-13T05:32:10.394Z,70.83
2022-10-13T05:33:10.420Z,71.44
2022-10-13T05:34:10.181Z,70.92
2022-10-13T05:35:10.473Z,70.92
2022-10-13T05:36:10.470Z,71.02
2022-10-13T05:37:10.618Z,71.59
2022-10-13T05:38:10.501Z,71.41
2022-10-13T05:39:10.527Z,71.5
2022-10-13T05:40:10.534Z,71.31
2022-10-13T05:41:10.556Z,71.69
2022-10-13T05:42:10.320Z,71.69
2022-10-13T05:43:10.592Z,71.69
2022-10-13T05:44:10.342Z,71.69
2022-10-13T05:45:10.626Z,71.59
2022-10-13T05:46:10.642Z,71.69
2022-10-13T05:47:10.660Z,71.59
2022-10-13T05:48:10.420Z,71.69
2022-10-13T05:49:10.714Z,71.59
2022-10-13T05:50:10.453Z,71.69
2022-10-13T05:51:10.849Z,71.69
2022-10-13T05:52:10.753Z,71.69
2022-10-13T05:53:10.799Z,71.41
2022-10-13T05:54:10.777Z,71.72
2022-10-13T05:55:10.812Z,71.69
2022-10-13T05:56:10.557Z,71.78
2022-10-13T05:57:10.608Z,71.69
2022-10-13T05:58:10.850Z,71.69
2022-10-13T05:59:10.868Z,71.72
2022-10-13T06:00:10.631Z,71.78
2022-10-13T06:01:10.907Z,71.69
2022-10-13T06:02:10.878Z,71.59
2022-10-13T06:03:10.942Z,71.59
2022-10-13T06:04:10.701Z,71.44
2022-10-13T06:05:10.987Z,71.59
2022-10-13T06:06:10.734Z,71.34
2022-10-13T06:07:11.033Z,71.59
2022-10-13T06:08:11.029Z,71.34
2022-10-13T06:09:11.070Z,71.41
2022-10-13T06:10:11.061Z,71.44
2022-10-13T06:11:11.089Z,71.41
2022-10-13T06:12:11.098Z,71.92
2022-10-13T06:13:10.856Z,72.01
2022-10-13T06:14:11.128Z,71.59
2022-10-13T06:15:10.895Z,71.44
2022-10-13T06:16:11.164Z,70.92
2022-10-13T06:17:11.186Z,71.92
2022-10-13T06:18:10.944Z,71.59
2022-10-13T06:19:10.964Z,71.98
2022-10-13T06:20:10.984Z,71.44
2022-10-13T06:21:11.102Z,71.44
2022-10-13T06:22:11.284Z,71.31
2022-10-13T06:23:11.312Z,71.63
2022-10-13T06:24:11.050Z,71.44
2022-10-13T06:25:11.362Z,71.63
2022-10-13T06:26:11.083Z,71.63
2022-10-13T06:27:11.361Z,71.72
2022-10-13T06:28:11.384Z,71.72
2022-10-13T06:29:11.460Z,71.72
2022-10-13T06:30:11.415Z,71.59
2022-10-13T06:31:11.425Z,71.53
2022-10-13T06:32:11.189Z,71.72
2022-10-13T06:33:11.208Z,72.01
2022-10-13T06:34:11.232Z,71.72
2022-10-13T06:35:11.498Z,71.72
2022-10-13T06:36:11.530Z,71.63
2022-10-13T06:37:11.534Z,71.63
2022-10-13T06:38:11.557Z,71.82
2022-10-13T06:39:11.342Z,72.01
2022-10-13T06:40:11.590Z,71.72
2022-10-13T06:41:11.646Z,71.63
2022-10-13T06:42:11.368Z,71.72
2022-10-13T06:43:11.384Z,71.72
2022-10-13T06:44:11.400Z,71.63
2022-10-13T06:45:11.417Z,71.72
2022-10-13T06:46:11.695Z,71.72
2022-10-13T06:47:11.711Z,71.72
2022-10-13T06:48:11.473Z,71.72
2022-10-13T06:49:11.748Z,71.63
2022-10-13T06:50:11.511Z,71.63
2022-10-13T06:51:11.788Z,71.72
2022-10-13T06:52:11.798Z,71.63
2022-10-13T06:53:11.557Z,71.92
2022-10-13T06:54:11.579Z,71.72
2022-10-13T06:55:11.896Z,71.72
2022-10-13T06:56:11.611Z,71.82
2022-10-13T06:57:11.951Z,71.53
2022-10-13T06:58:11.945Z,71.53
2022-10-13T06:59:11.920Z,71.72
2022-10-13T07:00:11.945Z,71.63
2022-10-13T07:01:12.063Z,71.82
2022-10-13T07:02:11.989Z,71.72
2022-10-13T07:03:11.998Z,71.44
2022-10-13T07:04:12.018Z,71.44
2022-10-13T07:05:12.031Z,71.34
2022-10-13T07:06:12.048Z,71.44
2022-10-13T07:07:12.064Z,70.96
2022-10-13T07:08:12.091Z,71.63
2022-10-13T07:09:12.121Z,71.34
2022-10-13T07:10:11.865Z,71.25
2022-10-13T07:11:18.014Z,71.25
2022-10-13T07:12:12.161Z,71.15
2022-10-13T07:13:12.317Z,71.25
2022-10-13T07:14:12.189Z,71.15
2022-10-13T07:15:12.217Z,71.34
2022-10-13T07:16:12.221Z,71.25
2022-10-13T07:17:11.985Z,71.06
2022-10-13T07:18:12.259Z,71.15
2022-10-13T07:19:12.281Z,71.06
2022-10-13T07:20:12.296Z,71.15
2022-10-13T07:21:12.256Z,71.25
2022-10-13T07:22:12.077Z,71.34
2022-10-13T07:23:12.362Z,71.25
2022-10-13T07:24:12.376Z,71.15
2022-10-13T07:25:12.124Z,71.06
2022-10-13T07:26:12.158Z,71.15
2022-10-13T07:27:12.189Z,70.96
2022-10-13T07:28:12.466Z,71.34
2022-10-13T07:29:12.490Z,71.34
2022-10-13T07:30:12.216Z,71.34
2022-10-13T07:31:12.488Z,70.96
2022-10-13T07:32:12.511Z,70.96
2022-10-13T07:33:12.272Z,71.34
2022-10-13T07:34:12.544Z,71.34
2022-10-13T07:35:12.564Z,71.34
2022-10-13T07:36:12.575Z,71.25
2022-10-13T07:37:12.341Z,71.34
2022-10-13T07:38:12.613Z,71.34
2022-10-13T07:39:12.648Z,71.15
2022-10-13T07:40:12.667Z,71.44
2022-10-13T07:41:12.672Z,71.44
2022-10-13T07:42:12.427Z,71.34
2022-10-13T07:43:12.745Z,71.44
2022-10-13T07:44:12.820Z,71.53
2022-10-13T07:45:12.912Z,71.53
2022-10-13T07:46:12.758Z,71.34
2022-10-13T07:47:12.523Z,71.06
2022-10-13T07:48:12.889Z,71.06
2022-10-13T07:49:16.402Z,70.96
2022-10-13T07:50:12.840Z,71.06
2022-10-13T07:51:12.958Z,71.06
2022-10-13T07:52:12.865Z,71.06
2022-10-13T07:53:12.905Z,70.58
2022-10-13T07:54:12.645Z,70.67
2022-10-13T07:55:12.921Z,70.61
2022-10-13T07:56:12.942Z,70.87
2022-10-13T07:57:12.963Z,71.15
2022-10-13T07:58:13.011Z,71.15
2022-10-13T07:59:13.112Z,70.96
2022-10-13T08:00:12.916Z,70.96
2022-10-13T08:01:13.121Z,70.61
2022-10-13T08:02:13.039Z,70.9
2022-10-13T08:03:13.075Z,70.81
2022-10-13T08:04:13.076Z,70.81
2022-10-13T08:05:13.112Z,70.71
2022-10-13T08:06:12.856Z,70.61
2022-10-13T08:07:13.145Z,70.81
2022-10-13T08:08:13.160Z,70.71
2022-10-13T08:09:13.163Z,70.81
2022-10-13T08:10:12.931Z,70.71
2022-10-13T08:11:17.429Z,70.81
2022-10-13T08:12:13.229Z,71
2022-10-13T08:13:13.247Z,70.9
2022-10-13T08:14:13.266Z,70.81
2022-10-13T08:15:13.313Z,70.81
2022-10-13T08:16:13.300Z,71
2022-10-13T08:17:13.354Z,71
2022-10-13T08:18:13.334Z,71
2022-10-13T08:19:13.341Z,71
2022-10-13T08:20:13.156Z,70.52
2022-10-13T08:21:58.560Z,70.9
2022-10-13T08:22:14.339Z,70.9
2022-10-13T08:23:14.349Z,71
2022-10-13T08:24:14.375Z,71
2022-10-13T08:25:14.382Z,71.09
2022-10-13T08:26:14.403Z,71
2022-10-13T08:27:14.418Z,71
2022-10-13T08:28:14.527Z,70.71
2022-10-13T08:29:29.984Z,70.71
2022-10-13T08:30:14.358Z,70.9
2022-10-13T08:31:14.961Z,70.9
2022-10-13T08:32:14.265Z,71
2022-10-13T08:33:14.558Z,71
2022-10-13T08:34:14.564Z,71
2022-10-13T08:35:14.310Z,70.9
2022-10-13T08:36:14.587Z,71.09
2022-10-13T08:37:14.599Z,70.71
2022-10-13T08:38:14.365Z,70.81
2022-10-13T08:39:14.642Z,70.81
2022-10-13T08:40:14.666Z,70.81
2022-10-13T08:41:14.673Z,70.81
2022-10-13T08:42:14.705Z,70.9
2022-10-13T08:43:14.454Z,70.61
2022-10-13T08:45:22.074Z,70.71
2022-10-13T08:45:54.404Z,70.61
2022-10-13T08:46:54.432Z,70.61
2022-10-13T08:47:54.421Z,70.61
2022-10-13T08:48:54.475Z,70.71
2022-10-13T08:50:00.905Z,70.71
2022-10-13T08:50:54.219Z,70.71
2022-10-13T08:51:54.240Z,70.71
2022-10-13T08:52:54.530Z,70.81
2022-10-13T08:53:54.278Z,70.71
2022-10-13T08:54:54.298Z,70.9
2022-10-13T08:55:54.314Z,70.9
2022-10-13T08:56:54.693Z,71
2022-10-13T08:57:54.609Z,70.42
2022-10-13T08:58:54.617Z,70.81
2022-10-13T08:59:54.654Z,71.03
2022-10-13T09:00:54.660Z,70.71
2022-10-13T09:01:54.819Z,70.61
2022-10-13T09:02:54.467Z,70.71
2022-10-13T09:03:54.716Z,70.75
2022-10-13T09:04:54.859Z,70.65
2022-10-13T09:05:54.759Z,70.56
2022-10-13T09:06:54.773Z,70.36
2022-10-13T09:07:54.556Z,70.46
2022-10-13T09:08:54.557Z,70.56
2022-10-13T09:09:54.825Z,70.56
2022-10-13T09:10:54.592Z,70.27
2022-10-13T09:11:54.865Z,70.46
2022-10-13T09:12:54.877Z,70.17
2022-10-13T09:13:54.645Z,70.46
2022-10-13T09:14:54.916Z,70.27
2022-10-13T09:15:54.684Z,70.46
2022-10-13T09:16:54.694Z,70.65
2022-10-13T09:17:54.978Z,70.27
2022-10-13T09:18:55.018Z,70.17
2022-10-13T09:19:55.011Z,69.98
2022-10-13T09:20:55.570Z,70.07
2022-10-13T09:21:55.254Z,69.89
2022-10-13T09:22:55.060Z,69.6
2022-10-13T09:23:55.078Z,69.73
2022-10-13T09:24:54.841Z,69.98
2022-10-13T09:25:55.120Z,69.31
2022-10-13T09:26:55.136Z,69.15
2022-10-13T09:27:55.156Z,69.35
2022-10-13T09:28:55.419Z,69.64
2022-10-13T09:29:55.191Z,69.54
2022-10-13T09:30:55.210Z,68.77
2022-10-13T09:31:55.227Z,68.87
2022-10-13T09:32:55.303Z,69.25
2022-10-13T09:33:55.265Z,68.49
2022-10-13T09:34:55.052Z,69.25
2022-10-13T09:35:55.303Z,68.77
2022-10-13T09:36:55.357Z,68.77
2022-10-13T09:37:55.344Z,69.25
2022-10-13T09:38:55.351Z,68.29
2022-10-13T09:39:55.122Z,68.87
2022-10-13T09:40:55.135Z,69.06
2022-10-13T09:41:55.420Z,68.87
2022-10-13T09:42:55.473Z,68.96
2022-10-13T09:43:55.448Z,69.35
2022-10-13T09:44:55.212Z,69.44
2022-10-13T09:45:55.485Z,69.35
2022-10-13T09:46:55.493Z,69.44
2022-10-13T09:47:55.533Z,69.35
2022-10-13T09:48:55.286Z,69.35
2022-10-13T09:49:55.557Z,69.15
2022-10-13T09:50:55.611Z,69.35
2022-10-13T09:51:55.597Z,69.15
2022-10-13T09:52:55.694Z,69.15
2022-10-13T09:53:55.638Z,69.35
2022-10-13T09:54:55.655Z,69.15
2022-10-13T09:55:55.667Z,69.15
2022-10-13T09:56:55.691Z,69.35
2022-10-13T09:57:55.704Z,69.44
2022-10-13T09:58:55.731Z,69.06
2022-10-13T09:59:55.595Z,69.06
2022-10-13T10:00:55.508Z,68.96
2022-10-13T10:01:55.781Z,69.06
2022-10-13T10:02:55.624Z,68.58
2022-10-13T10:03:55.910Z,68.49
2022-10-13T10:04:55.859Z,69.06
2022-10-13T10:05:55.921Z,68.87
2022-10-13T10:06:55.909Z,68.58
2022-10-13T10:07:55.893Z,69.15
2022-10-13T10:09:11.302Z,69.15
2022-10-13T10:09:55.679Z,69.15
2022-10-13T10:10:55.960Z,68.87
2022-10-13T10:11:55.968Z,69.06
2022-10-13T10:12:56.018Z,68.87
2022-10-13T10:13:56.003Z,69.25
2022-10-13T10:14:55.773Z,69.09
2022-10-13T10:15:55.789Z,69.29
2022-10-13T10:16:56.067Z,69.19
2022-10-13T10:17:56.078Z,68.8
2022-10-13T10:19:01.000Z,69.15
2022-10-13T10:19:56.122Z,69.09
2022-10-13T10:20:55.882Z,68.9
2022-10-13T10:21:56.207Z,69.09
2022-10-13T10:22:56.214Z,68.71
2022-10-13T10:23:56.194Z,69
2022-10-13T10:24:56.243Z,68.71
2022-10-13T10:25:56.228Z,68.9
2022-10-13T10:26:56.250Z,68.8
2022-10-13T10:27:56.269Z,68.71
2022-10-13T10:28:56.428Z,68.8
2022-10-13T10:29:56.303Z,68.9
2022-10-13T10:30:56.325Z,68.8
2022-10-13T10:31:56.340Z,68.23
2022-10-13T10:32:56.550Z,68.71
2022-10-13T10:33:56.383Z,68.8
2022-10-13T10:34:56.402Z,69
2022-10-13T10:35:56.160Z,69
2022-10-13T10:36:56.184Z,68.33
2022-10-13T10:37:56.460Z,68.33
2022-10-13T10:38:56.508Z,68.23
2022-10-13T10:39:56.242Z,68.23
2022-10-13T10:40:56.706Z,68.8
2022-10-13T10:41:56.545Z,68.71
2022-10-13T10:42:56.548Z,68.42
2022-10-13T10:43:56.312Z,68.13
2022-10-13T10:44:56.595Z,68.62
2022-10-13T10:45:56.607Z,68.62
2022-10-13T10:46:56.619Z,68.62
2022-10-13T10:47:56.672Z,68.52
2022-10-13T10:48:56.404Z,68.13
2022-10-13T10:49:56.701Z,68.04
2022-10-13T10:50:56.714Z,67.85
2022-10-13T10:51:56.788Z,67.85
2022-10-13T10:52:56.748Z,67.88
2022-10-13T10:53:56.509Z,67.94
2022-10-13T10:54:56.540Z,67.79
2022-10-13T10:55:56.803Z,67.98
2022-10-13T10:56:56.855Z,67.76
2022-10-13T10:57:56.581Z,68.36
2022-10-13T10:58:56.597Z,67.88
2022-10-13T10:59:56.866Z,68.13
2022-10-13T11:00:56.898Z,68.23
2022-10-13T11:01:57.033Z,68.13
2022-10-13T11:02:56.670Z,68.07
2022-10-13T11:03:56.695Z,68.07
2022-10-13T11:04:56.720Z,67.98
2022-10-13T11:05:56.988Z,68.17
2022-10-13T11:06:56.753Z,68.17
2022-10-13T11:07:57.033Z,68.27
2022-10-13T11:08:57.040Z,68.27
2022-10-13T11:09:57.068Z,68.27
2022-10-13T11:10:57.105Z,67.98
2022-10-13T11:11:56.850Z,67.98
2022-10-13T11:12:57.141Z,67.69
2022-10-13T11:13:57.203Z,67.88
2022-10-13T11:14:57.170Z,67.98
2022-10-13T11:15:57.185Z,67.88
2022-10-13T11:16:57.198Z,67.98
2022-10-13T11:17:57.218Z,67.88
2022-10-13T11:18:57.250Z,67.88
2022-10-13T11:19:57.260Z,67.88
2022-10-13T11:20:57.016Z,67.88
2022-10-13T11:21:57.401Z,67.79
2022-10-13T11:22:57.319Z,67.88
2022-10-13T11:24:03.254Z,67.88
2022-10-13T11:24:57.350Z,67.79
2022-10-13T11:25:57.371Z,67.79
2022-10-13T11:26:57.423Z,67.31
2022-10-13T11:27:57.170Z,67.5
2022-10-13T11:28:57.537Z,67.69
2022-10-13T11:29:57.465Z,67.69
2022-10-13T11:30:57.222Z,67.41
2022-10-13T11:31:57.232Z,67.6
2022-10-13T11:32:57.511Z,67.15
2022-10-13T11:33:57.274Z,67.11
2022-10-13T11:34:57.553Z,67.44
2022-10-13T11:35:57.309Z,67.05
2022-10-13T11:36:57.593Z,66.93
2022-10-13T11:38:12.713Z,67.25
2022-10-13T11:38:57.639Z,67.25
2022-10-13T11:39:57.648Z,67.54
2022-10-13T11:40:57.669Z,67.54
2022-10-13T11:41:57.689Z,67.44
2022-10-13T11:43:03.775Z,67.25
2022-10-13T11:43:57.724Z,67.34
2022-10-13T11:44:57.892Z,67.34
2022-10-13T11:45:57.767Z,67.44
2022-10-13T11:46:57.793Z,67.05
2022-10-13T11:47:57.735Z,67.15
2022-10-13T11:48:57.828Z,67.44
2022-10-13T11:49:57.581Z,67.34
2022-10-13T11:50:57.865Z,67.44
2022-10-13T11:51:58.169Z,66.77
2022-10-13T11:52:57.641Z,66.96
2022-10-13T11:53:57.667Z,66.96
2022-10-13T11:54:57.946Z,67.05
2022-10-13T11:55:57.953Z,66.96
2022-10-13T11:56:57.974Z,67.25
2022-10-13T11:57:57.994Z,67.25
2022-10-13T11:58:58.045Z,66.96
2022-10-13T11:59:57.802Z,67.15
2022-10-13T12:00:58.101Z,67.34
2022-10-13T12:01:58.070Z,66.96
2022-10-13T12:02:58.176Z,66.96
2022-10-13T12:03:58.109Z,67.34
2022-10-13T12:04:58.134Z,66.96
2022-10-13T12:05:57.890Z,66.86
2022-10-13T12:06:58.178Z,67.34
2022-10-13T12:07:57.929Z,67.25
2022-10-13T12:08:58.214Z,67.34
2022-10-13T12:09:58.224Z,66.86
2022-10-13T12:10:58.260Z,66.86
2022-10-13T12:11:58.269Z,66.96
2022-10-13T12:12:58.287Z,66.86
2022-10-13T12:13:58.302Z,67.25
2022-10-13T12:15:01.123Z,66.96
2022-10-13T12:15:58.087Z,67.25
2022-10-13T12:16:58.406Z,66.96
2022-10-13T12:17:58.380Z,67.15
2022-10-13T12:18:58.147Z,67.25
2022-10-13T12:19:58.425Z,67.15
2022-10-13T12:20:58.184Z,67.25
2022-10-13T12:21:58.401Z,67.15
2022-10-13T12:22:58.225Z,67.05
2022-10-13T12:23:58.247Z,67.05
2022-10-13T12:24:58.259Z,66.86
2022-10-13T12:25:58.277Z,66.86
2022-10-13T12:26:58.582Z,66.86
2022-10-13T12:27:58.578Z,67.05
2022-10-13T12:28:58.773Z,66.96
2022-10-13T12:29:58.620Z,66.86
2022-10-13T12:30:58.678Z,67.05
2022-10-13T12:31:58.415Z,67.05
2022-10-13T12:32:58.788Z,66.89
2022-10-13T12:33:58.755Z,66.99
2022-10-13T12:34:58.742Z,67.25
2022-10-13T12:35:58.754Z,66.89
2022-10-13T12:36:58.787Z,66.99
2022-10-13T12:37:58.780Z,66.8
2022-10-13T12:38:58.535Z,67.09
2022-10-13T12:39:58.814Z,66.99
2022-10-13T12:40:58.829Z,67.09
2022-10-13T12:41:58.848Z,66.99
2022-10-13T12:42:58.866Z,67.09
2022-10-13T12:43:59.942Z,67.09
2022-10-13T12:44:58.911Z,67.09
2022-10-13T12:45:58.927Z,67.09
2022-10-13T12:46:58.715Z,67.09
2022-10-13T12:47:58.969Z,67.09
2022-10-13T12:48:59.007Z,66.99
2022-10-13T12:49:58.752Z,67.18
2022-10-13T12:50:59.023Z,67.09
2022-10-13T12:51:59.046Z,66.89
2022-10-13T12:52:59.061Z,67.18
2022-10-13T12:53:59.086Z,66.89
2022-10-13T12:54:59.100Z,67.05
2022-10-13T12:55:58.914Z,66.89
2022-10-13T12:56:58.883Z,67.18